sensor_id;sensor_type;location;lat;lon;timestamp;temperature;humidity
5743;DHT22;2896;53.500;10.020;2023-07-29T00:00:52;18.10;21.10
5743;DHT22;2896;53.500;10.020;2023-07-29T00:03:20;18.00;1.00
5743;DHT22;2896;53.500;10.020;2023-07-29T00:05:47;17.80;1.00
5743;DHT22;2896;53.500;10.020;2023-07-29T00:08:14;17.80;1.00
5743;DHT22;2896;53.500;10.020;2023-07-29T00:10:40;17.80;1.00
5743;DHT22;2896;53.500;10.020;2023-07-29T00:13:08;17.70;1.00
5743;DHT22;2896;53.500;10.020;2023-07-29T00:15:35;17.70;1.00
5743;DHT22;2896;53.500;10.020;2023-07-29T00:18:02;17.60;6.60
5743;DHT22;2896;53.500;10.020;2023-07-29T00:20:28;17.50;45.00
5743;DHT22;2896;53.500;10.020;2023-07-29T00:22:55;17.50;99.90
5743;DHT22;2896;53.500;10.020;2023-07-29T00:25:23;17.50;99.90
5743;DHT22;2896;53.500;10.020;2023-07-29T00:27:50;17.50;99.90
5743;DHT22;2896;53.500;10.020;2023-07-29T00:30:18;17.50;99.90
5743;DHT22;2896;53.500;10.020;2023-07-29T00:32:44;17.40;99.90
5743;DHT22;2896;53.500;10.020;2023-07-29T00:35:11;17.40;99.90
5743;DHT22;2896;53.500;10.020;2023-07-29T00:37:38;17.40;1.00
5743;DHT22;2896;53.500;10.020;2023-07-29T00:40:12;17.40;99.90
5743;DHT22;2896;53.500;10.020;2023-07-29T00:42:40;17.40;99.90
5743;DHT22;2896;53.500;10.020;2023-07-29T00:45:08;17.30;99.90
5743;DHT22;2896;53.500;10.020;2023-07-29T00:47:36;17.20;99.90
5743;DHT22;2896;53.500;10.020;2023-07-29T00:50:04;17.20;99.90
5743;DHT22;2896;53.500;10.020;2023-07-29T00:52:32;17.20;1.00
5743;DHT22;2896;53.500;10.020;2023-07-29T00:54:58;17.20;1.00
5743;DHT22;2896;53.500;10.020;2023-07-29T00:57:25;17.30;99.90
5743;DHT22;2896;53.500;10.020;2023-07-29T00:59:54;17.40;1.00
5743;DHT22;2896;53.500;10.020;2023-07-29T01:02:20;17.40;99.90
5743;DHT22;2896;53.500;10.020;2023-07-29T01:04:53;17.30;99.90
5743;DHT22;2896;53.500;10.020;2023-07-29T01:07:23;17.40;1.00
5743;DHT22;2896;53.500;10.020;2023-07-29T01:09:57;17.50;99.90
5743;DHT22;2896;53.500;10.020;2023-07-29T01:12:33;17.60;99.90
5743;DHT22;2896;53.500;10.020;2023-07-29T01:15:11;17.70;99.90
5743;DHT22;2896;53.500;10.020;2023-07-29T01:17:42;17.70;99.90
5743;DHT22;2896;53.500;10.020;2023-07-29T01:20:14;17.70;99.90
5743;DHT22;2896;53.500;10.020;2023-07-29T01:22:41;17.70;99.90
5743;DHT22;2896;53.500;10.020;2023-07-29T01:25:10;17.70;99.90
5743;DHT22;2896;53.500;10.020;2023-07-29T01:27:36;17.70;99.90
5743;DHT22;2896;53.500;10.020;2023-07-29T01:30:04;17.70;99.90
5743;DHT22;2896;53.500;10.020;2023-07-29T01:32:36;17.80;99.90
5743;DHT22;2896;53.500;10.020;2023-07-29T01:35:10;17.80;99.90
5743;DHT22;2896;53.500;10.020;2023-07-29T01:37:40;17.80;99.90
5743;DHT22;2896;53.500;10.020;2023-07-29T01:40:10;17.80;99.90
5743;DHT22;2896;53.500;10.020;2023-07-29T01:42:38;17.80;99.90
5743;DHT22;2896;53.500;10.020;2023-07-29T01:45:05;17.90;99.90
5743;DHT22;2896;53.500;10.020;2023-07-29T01:47:32;17.90;99.90
5743;DHT22;2896;53.500;10.020;2023-07-29T01:49:59;17.90;99.90
5743;DHT22;2896;53.500;10.020;2023-07-29T01:52:26;17.90;99.90
5743;DHT22;2896;53.500;10.020;2023-07-29T01:54:52;18.00;99.90
5743;DHT22;2896;53.500;10.020;2023-07-29T01:57:20;18.00;99.90
5743;DHT22;2896;53.500;10.020;2023-07-29T01:59:47;18.00;99.90
5743;DHT22;2896;53.500;10.020;2023-07-29T02:02:14;18.10;99.90
5743;DHT22;2896;53.500;10.020;2023-07-29T02:04:40;18.10;99.90
5743;DHT22;2896;53.500;10.020;2023-07-29T02:07:07;18.10;99.90
5743;DHT22;2896;53.500;10.020;2023-07-29T02:09:34;18.10;99.90
5743;DHT22;2896;53.500;10.020;2023-07-29T02:12:00;18.10;99.90
5743;DHT22;2896;53.500;10.020;2023-07-29T02:14:29;18.10;99.90
5743;DHT22;2896;53.500;10.020;2023-07-29T02:16:56;18.10;99.90
5743;DHT22;2896;53.500;10.020;2023-07-29T02:19:22;18.20;99.90
5743;DHT22;2896;53.500;10.020;2023-07-29T02:21:49;18.20;99.90
5743;DHT22;2896;53.500;10.020;2023-07-29T02:24:16;18.10;99.90
5743;DHT22;2896;53.500;10.020;2023-07-29T02:26:42;18.20;99.90
5743;DHT22;2896;53.500;10.020;2023-07-29T02:29:09;18.10;99.90
5743;DHT22;2896;53.500;10.020;2023-07-29T02:31:37;18.10;99.90
5743;DHT22;2896;53.500;10.020;2023-07-29T02:34:04;20.40;99.90
5743;DHT22;2896;53.500;10.020;2023-07-29T02:36:30;18.10;99.90
5743;DHT22;2896;53.500;10.020;2023-07-29T02:38:57;18.10;99.90
5743;DHT22;2896;53.500;10.020;2023-07-29T02:41:24;18.10;99.90
5743;DHT22;2896;53.500;10.020;2023-07-29T02:43:51;18.10;99.90
5743;DHT22;2896;53.500;10.020;2023-07-29T02:46:18;18.20;99.90
5743;DHT22;2896;53.500;10.020;2023-07-29T02:48:46;18.10;99.90
5743;DHT22;2896;53.500;10.020;2023-07-29T02:51:12;18.20;99.90
5743;DHT22;2896;53.500;10.020;2023-07-29T02:53:39;18.20;99.90
5743;DHT22;2896;53.500;10.020;2023-07-29T02:56:06;18.20;99.90
5743;DHT22;2896;53.500;10.020;2023-07-29T02:58:35;18.00;99.90
5743;DHT22;2896;53.500;10.020;2023-07-29T03:01:03;17.90;99.90
5743;DHT22;2896;53.500;10.020;2023-07-29T03:03:29;17.90;99.90
5743;DHT22;2896;53.500;10.020;2023-07-29T03:06:02;17.90;99.90
5743;DHT22;2896;53.500;10.020;2023-07-29T03:08:29;17.90;99.90
5743;DHT22;2896;53.500;10.020;2023-07-29T03:10:56;17.80;99.90
5743;DHT22;2896;53.500;10.020;2023-07-29T03:13:23;17.70;99.90
5743;DHT22;2896;53.500;10.020;2023-07-29T03:15:51;17.70;99.90
5743;DHT22;2896;53.500;10.020;2023-07-29T03:18:18;17.70;99.90
5743;DHT22;2896;53.500;10.020;2023-07-29T03:20:44;17.70;99.90
5743;DHT22;2896;53.500;10.020;2023-07-29T03:23:12;17.60;99.90
5743;DHT22;2896;53.500;10.020;2023-07-29T03:25:39;17.60;99.90
5743;DHT22;2896;53.500;10.020;2023-07-29T03:28:06;17.60;99.90
5743;DHT22;2896;53.500;10.020;2023-07-29T03:30:32;17.50;99.90
5743;DHT22;2896;53.500;10.020;2023-07-29T03:32:59;17.50;99.90
5743;DHT22;2896;53.500;10.020;2023-07-29T03:35:25;17.50;99.90
5743;DHT22;2896;53.500;10.020;2023-07-29T03:37:52;17.80;99.90
5743;DHT22;2896;53.500;10.020;2023-07-29T03:40:20;17.60;99.90
5743;DHT22;2896;53.500;10.020;2023-07-29T03:42:47;17.60;99.90
5743;DHT22;2896;53.500;10.020;2023-07-29T03:45:14;17.70;99.90
5743;DHT22;2896;53.500;10.020;2023-07-29T03:47:40;17.70;99.90
5743;DHT22;2896;53.500;10.020;2023-07-29T03:50:08;17.70;99.90
5743;DHT22;2896;53.500;10.020;2023-07-29T03:52:35;17.80;99.90
5743;DHT22;2896;53.500;10.020;2023-07-29T03:55:02;17.80;99.90
5743;DHT22;2896;53.500;10.020;2023-07-29T03:57:30;17.80;99.90
5743;DHT22;2896;53.500;10.020;2023-07-29T03:59:56;17.70;99.90
5743;DHT22;2896;53.500;10.020;2023-07-29T04:02:23;17.70;99.90
5743;DHT22;2896;53.500;10.020;2023-07-29T04:04:50;17.60;99.90
5743;DHT22;2896;53.500;10.020;2023-07-29T04:07:17;17.60;99.90
5743;DHT22;2896;53.500;10.020;2023-07-29T04:09:43;17.80;99.90
5743;DHT22;2896;53.500;10.020;2023-07-29T04:12:10;17.60;99.90
5743;DHT22;2896;53.500;10.020;2023-07-29T04:14:38;17.60;99.90
5743;DHT22;2896;53.500;10.020;2023-07-29T04:17:05;17.60;99.90
5743;DHT22;2896;53.500;10.020;2023-07-29T04:19:32;17.70;99.90
5743;DHT22;2896;53.500;10.020;2023-07-29T04:21:58;17.70;99.90
5743;DHT22;2896;53.500;10.020;2023-07-29T04:24:25;17.70;99.90
5743;DHT22;2896;53.500;10.020;2023-07-29T04:26:52;17.80;99.90
5743;DHT22;2896;53.500;10.020;2023-07-29T04:29:18;17.80;99.90
5743;DHT22;2896;53.500;10.020;2023-07-29T04:31:47;17.80;99.90
5743;DHT22;2896;53.500;10.020;2023-07-29T04:34:14;17.90;99.90
5743;DHT22;2896;53.500;10.020;2023-07-29T04:36:40;17.90;99.90
5743;DHT22;2896;53.500;10.020;2023-07-29T04:39:07;17.90;99.90
5743;DHT22;2896;53.500;10.020;2023-07-29T04:41:34;18.00;99.90
5743;DHT22;2896;53.500;10.020;2023-07-29T04:44:01;17.90;99.90
5743;DHT22;2896;53.500;10.020;2023-07-29T04:46:28;17.90;99.90
5743;DHT22;2896;53.500;10.020;2023-07-29T04:48:56;18.10;99.90
5743;DHT22;2896;53.500;10.020;2023-07-29T04:51:23;18.00;99.90
5743;DHT22;2896;53.500;10.020;2023-07-29T04:53:50;18.10;99.90
5743;DHT22;2896;53.500;10.020;2023-07-29T04:56:16;18.10;99.90
5743;DHT22;2896;53.500;10.020;2023-07-29T04:58:43;18.10;99.90
5743;DHT22;2896;53.500;10.020;2023-07-29T05:01:10;15.90;99.90
5743;DHT22;2896;53.500;10.020;2023-07-29T05:03:36;18.10;99.90
5743;DHT22;2896;53.500;10.020;2023-07-29T05:06:06;18.20;99.90
5743;DHT22;2896;53.500;10.020;2023-07-29T05:08:36;18.30;99.90
5743;DHT22;2896;53.500;10.020;2023-07-29T05:11:03;18.30;99.90
5743;DHT22;2896;53.500;10.020;2023-07-29T05:13:29;18.40;99.90
5743;DHT22;2896;53.500;10.020;2023-07-29T05:15:56;18.40;99.90
5743;DHT22;2896;53.500;10.020;2023-07-29T05:18:23;18.50;99.90
5743;DHT22;2896;53.500;10.020;2023-07-29T05:20:49;18.60;99.90
5743;DHT22;2896;53.500;10.020;2023-07-29T05:23:17;18.80;99.90
5743;DHT22;2896;53.500;10.020;2023-07-29T05:25:44;18.80;99.90
5743;DHT22;2896;53.500;10.020;2023-07-29T05:28:11;18.90;99.90
5743;DHT22;2896;53.500;10.020;2023-07-29T05:30:37;19.00;99.90
5743;DHT22;2896;53.500;10.020;2023-07-29T05:33:05;19.10;99.90
5743;DHT22;2896;53.500;10.020;2023-07-29T05:35:33;19.30;99.90
5743;DHT22;2896;53.500;10.020;2023-07-29T05:37:59;19.40;99.90
5743;DHT22;2896;53.500;10.020;2023-07-29T05:40:27;19.40;99.90
5743;DHT22;2896;53.500;10.020;2023-07-29T05:42:54;19.50;99.90
5743;DHT22;2896;53.500;10.020;2023-07-29T05:45:21;19.60;99.90
5743;DHT22;2896;53.500;10.020;2023-07-29T05:47:48;21.70;99.90
5743;DHT22;2896;53.500;10.020;2023-07-29T05:50:14;19.90;99.90
5743;DHT22;2896;53.500;10.020;2023-07-29T05:52:41;20.00;99.90
5743;DHT22;2896;53.500;10.020;2023-07-29T05:55:08;20.00;99.90
5743;DHT22;2896;53.500;10.020;2023-07-29T05:57:36;20.00;99.90
5743;DHT22;2896;53.500;10.020;2023-07-29T06:00:03;20.00;99.90
5743;DHT22;2896;53.500;10.020;2023-07-29T06:02:30;20.00;99.90
5743;DHT22;2896;53.500;10.020;2023-07-29T06:04:57;20.00;99.90
5743;DHT22;2896;53.500;10.020;2023-07-29T06:07:23;19.90;99.90
5743;DHT22;2896;53.500;10.020;2023-07-29T06:09:53;19.80;99.90
5743;DHT22;2896;53.500;10.020;2023-07-29T06:12:20;19.80;99.90
5743;DHT22;2896;53.500;10.020;2023-07-29T06:14:48;19.80;99.90
5743;DHT22;2896;53.500;10.020;2023-07-29T06:17:15;19.90;99.90
5743;DHT22;2896;53.500;10.020;2023-07-29T06:19:42;20.00;99.90
5743;DHT22;2896;53.500;10.020;2023-07-29T06:22:09;20.10;99.90
5743;DHT22;2896;53.500;10.020;2023-07-29T06:24:36;20.30;99.90
5743;DHT22;2896;53.500;10.020;2023-07-29T06:27:02;20.30;99.90
5743;DHT22;2896;53.500;10.020;2023-07-29T06:29:29;20.50;99.90
5743;DHT22;2896;53.500;10.020;2023-07-29T06:31:58;20.50;99.90
5743;DHT22;2896;53.500;10.020;2023-07-29T06:34:25;20.50;99.90
5743;DHT22;2896;53.500;10.020;2023-07-29T06:36:51;20.70;99.90
5743;DHT22;2896;53.500;10.020;2023-07-29T06:39:18;20.60;99.90
5743;DHT22;2896;53.500;10.020;2023-07-29T06:41:44;20.90;99.90
5743;DHT22;2896;53.500;10.020;2023-07-29T06:44:11;20.90;99.90
5743;DHT22;2896;53.500;10.020;2023-07-29T06:46:38;21.10;99.90
5743;DHT22;2896;53.500;10.020;2023-07-29T06:49:06;21.20;99.90
5743;DHT22;2896;53.500;10.020;2023-07-29T06:51:33;21.20;99.90
5743;DHT22;2896;53.500;10.020;2023-07-29T06:54:01;21.40;99.90
5743;DHT22;2896;53.500;10.020;2023-07-29T06:56:27;21.50;99.90
5743;DHT22;2896;53.500;10.020;2023-07-29T06:58:54;21.50;99.90
5743;DHT22;2896;53.500;10.020;2023-07-29T07:01:20;21.50;99.90
5743;DHT22;2896;53.500;10.020;2023-07-29T07:03:47;21.40;99.90
5743;DHT22;2896;53.500;10.020;2023-07-29T07:06:15;21.20;93.60
5743;DHT22;2896;53.500;10.020;2023-07-29T07:08:42;21.10;1.00
5743;DHT22;2896;53.500;10.020;2023-07-29T07:11:09;20.90;31.60
5743;DHT22;2896;53.500;10.020;2023-07-29T07:13:36;20.80;99.90
5743;DHT22;2896;53.500;10.020;2023-07-29T07:16:02;20.80;99.90
5743;DHT22;2896;53.500;10.020;2023-07-29T07:18:29;20.80;99.90
5743;DHT22;2896;53.500;10.020;2023-07-29T07:20:56;20.80;99.90
5743;DHT22;2896;53.500;10.020;2023-07-29T07:23:23;20.70;99.90
5743;DHT22;2896;53.500;10.020;2023-07-29T07:25:50;20.80;99.90
5743;DHT22;2896;53.500;10.020;2023-07-29T07:28:17;20.90;99.90
5743;DHT22;2896;53.500;10.020;2023-07-29T07:30:43;20.80;99.90
5743;DHT22;2896;53.500;10.020;2023-07-29T07:33:10;20.90;99.90
5743;DHT22;2896;53.500;10.020;2023-07-29T07:35:36;21.00;99.90
5743;DHT22;2896;53.500;10.020;2023-07-29T07:38:03;21.20;99.90
5743;DHT22;2896;53.500;10.020;2023-07-29T07:40:34;21.20;99.90
5743;DHT22;2896;53.500;10.020;2023-07-29T07:43:01;21.20;98.30
5743;DHT22;2896;53.500;10.020;2023-07-29T07:45:27;21.20;1.00
5743;DHT22;2896;53.500;10.020;2023-07-29T07:47:54;21.20;1.00
5743;DHT22;2896;53.500;10.020;2023-07-29T07:50:20;21.40;1.00
5743;DHT22;2896;53.500;10.020;2023-07-29T07:52:49;21.50;99.90
5743;DHT22;2896;53.500;10.020;2023-07-29T07:55:16;21.50;99.90
5743;DHT22;2896;53.500;10.020;2023-07-29T07:57:44;21.50;99.90
5743;DHT22;2896;53.500;10.020;2023-07-29T08:00:12;21.40;1.00
5743;DHT22;2896;53.500;10.020;2023-07-29T08:02:41;21.50;1.00
5743;DHT22;2896;53.500;10.020;2023-07-29T08:05:08;21.50;1.00
5743;DHT22;2896;53.500;10.020;2023-07-29T08:07:34;21.40;1.00
5743;DHT22;2896;53.500;10.020;2023-07-29T08:10:01;21.50;1.00
5743;DHT22;2896;53.500;10.020;2023-07-29T08:12:27;21.50;1.00
5743;DHT22;2896;53.500;10.020;2023-07-29T08:14:55;21.60;1.00
5743;DHT22;2896;53.500;10.020;2023-07-29T08:17:22;21.70;1.00
5743;DHT22;2896;53.500;10.020;2023-07-29T08:19:49;21.80;99.90
5743;DHT22;2896;53.500;10.020;2023-07-29T08:22:15;21.70;99.90
5743;DHT22;2896;53.500;10.020;2023-07-29T08:24:43;21.70;99.90
5743;DHT22;2896;53.500;10.020;2023-07-29T08:27:09;21.70;99.90
5743;DHT22;2896;53.500;10.020;2023-07-29T08:29:36;21.60;1.00
5743;DHT22;2896;53.500;10.020;2023-07-29T08:32:04;21.70;99.90
5743;DHT22;2896;53.500;10.020;2023-07-29T08:34:31;21.70;1.00
5743;DHT22;2896;53.500;10.020;2023-07-29T08:36:57;21.70;1.00
5743;DHT22;2896;53.500;10.020;2023-07-29T08:39:25;21.60;1.00
5743;DHT22;2896;53.500;10.020;2023-07-29T08:41:57;21.80;1.00
5743;DHT22;2896;53.500;10.020;2023-07-29T08:44:29;21.80;1.00
5743;DHT22;2896;53.500;10.020;2023-07-29T08:46:56;21.80;1.00
5743;DHT22;2896;53.500;10.020;2023-07-29T08:49:25;21.80;99.90
5743;DHT22;2896;53.500;10.020;2023-07-29T08:51:53;21.80;1.00
5743;DHT22;2896;53.500;10.020;2023-07-29T08:54:20;21.90;1.00
5743;DHT22;2896;53.500;10.020;2023-07-29T08:56:46;21.90;99.90
5743;DHT22;2896;53.500;10.020;2023-07-29T08:59:13;21.90;1.00
5743;DHT22;2896;53.500;10.020;2023-07-29T09:01:41;21.90;98.70
5743;DHT22;2896;53.500;10.020;2023-07-29T09:04:09;21.90;1.00
5743;DHT22;2896;53.500;10.020;2023-07-29T09:06:37;24.20;99.90
5743;DHT22;2896;53.500;10.020;2023-07-29T09:09:07;22.10;97.10
5743;DHT22;2896;53.500;10.020;2023-07-29T09:11:34;22.40;1.00
5743;DHT22;2896;53.500;10.020;2023-07-29T09:14:01;22.60;99.90
5743;DHT22;2896;53.500;10.020;2023-07-29T09:16:28;22.80;99.90
5743;DHT22;2896;53.500;10.020;2023-07-29T09:18:55;22.90;99.90
5743;DHT22;2896;53.500;10.020;2023-07-29T09:21:23;23.00;99.90
5743;DHT22;2896;53.500;10.020;2023-07-29T09:23:51;23.10;38.70
5743;DHT22;2896;53.500;10.020;2023-07-29T09:26:22;23.30;1.00
5743;DHT22;2896;53.500;10.020;2023-07-29T09:28:52;23.50;1.00
5743;DHT22;2896;53.500;10.020;2023-07-29T09:31:19;23.50;1.00
5743;DHT22;2896;53.500;10.020;2023-07-29T09:33:46;23.70;1.00
5743;DHT22;2896;53.500;10.020;2023-07-29T09:36:13;23.80;1.00
5743;DHT22;2896;53.500;10.020;2023-07-29T09:38:40;23.60;99.90
5743;DHT22;2896;53.500;10.020;2023-07-29T09:41:11;23.60;99.90
5743;DHT22;2896;53.500;10.020;2023-07-29T09:43:39;23.50;99.90
5743;DHT22;2896;53.500;10.020;2023-07-29T09:46:06;23.70;99.90
5743;DHT22;2896;53.500;10.020;2023-07-29T09:48:33;23.90;99.90
5743;DHT22;2896;53.500;10.020;2023-07-29T09:51:09;24.10;99.90
5743;DHT22;2896;53.500;10.020;2023-07-29T09:53:40;24.20;99.90
5743;DHT22;2896;53.500;10.020;2023-07-29T09:56:08;24.20;99.90
5743;DHT22;2896;53.500;10.020;2023-07-29T09:58:35;24.40;99.90
5743;DHT22;2896;53.500;10.020;2023-07-29T10:01:03;24.70;99.90
5743;DHT22;2896;53.500;10.020;2023-07-29T10:03:31;25.00;99.90
5743;DHT22;2896;53.500;10.020;2023-07-29T10:05:59;25.20;99.90
5743;DHT22;2896;53.500;10.020;2023-07-29T10:08:27;25.30;99.90
5743;DHT22;2896;53.500;10.020;2023-07-29T10:10:55;25.40;99.90
5743;DHT22;2896;53.500;10.020;2023-07-29T10:13:24;26.20;99.90
5743;DHT22;2896;53.500;10.020;2023-07-29T10:15:53;25.90;99.90
5743;DHT22;2896;53.500;10.020;2023-07-29T10:18:20;25.70;99.90
5743;DHT22;2896;53.500;10.020;2023-07-29T10:20:48;25.60;99.90
5743;DHT22;2896;53.500;10.020;2023-07-29T10:23:18;25.70;99.90
5743;DHT22;2896;53.500;10.020;2023-07-29T10:25:47;26.10;99.90
5743;DHT22;2896;53.500;10.020;2023-07-29T10:28:18;26.10;99.90
5743;DHT22;2896;53.500;10.020;2023-07-29T10:30:48;25.80;99.90
5743;DHT22;2896;53.500;10.020;2023-07-29T10:33:14;25.90;99.90
5743;DHT22;2896;53.500;10.020;2023-07-29T10:35:41;25.60;99.90
5743;DHT22;2896;53.500;10.020;2023-07-29T10:38:08;25.60;99.90
5743;DHT22;2896;53.500;10.020;2023-07-29T10:40:46;25.60;99.90
5743;DHT22;2896;53.500;10.020;2023-07-29T10:43:19;25.50;99.90
5743;DHT22;2896;53.500;10.020;2023-07-29T10:45:47;25.50;99.90
5743;DHT22;2896;53.500;10.020;2023-07-29T10:48:41;25.60;99.90
5743;DHT22;2896;53.500;10.020;2023-07-29T10:51:28;25.70;99.90
5743;DHT22;2896;53.500;10.020;2023-07-29T10:54:00;25.70;99.90
5743;DHT22;2896;53.500;10.020;2023-07-29T10:56:29;25.40;99.90
5743;DHT22;2896;53.500;10.020;2023-07-29T10:58:57;25.40;99.90
5743;DHT22;2896;53.500;10.020;2023-07-29T11:01:29;25.40;99.90
5743;DHT22;2896;53.500;10.020;2023-07-29T11:04:24;25.40;99.90
5743;DHT22;2896;53.500;10.020;2023-07-29T11:07:21;25.50;99.90
5743;DHT22;2896;53.500;10.020;2023-07-29T11:09:54;25.30;99.90
5743;DHT22;2896;53.500;10.020;2023-07-29T11:12:36;25.40;99.90
5743;DHT22;2896;53.500;10.020;2023-07-29T11:15:04;25.80;99.90
5743;DHT22;2896;53.500;10.020;2023-07-29T11:17:40;26.30;99.90
5743;DHT22;2896;53.500;10.020;2023-07-29T11:20:08;26.50;99.90
5743;DHT22;2896;53.500;10.020;2023-07-29T11:22:36;26.60;99.90
5743;DHT22;2896;53.500;10.020;2023-07-29T11:25:04;26.50;99.90
5743;DHT22;2896;53.500;10.020;2023-07-29T11:27:31;27.60;99.90
5743;DHT22;2896;53.500;10.020;2023-07-29T11:29:59;26.20;99.90
5743;DHT22;2896;53.500;10.020;2023-07-29T11:32:26;26.30;99.90
5743;DHT22;2896;53.500;10.020;2023-07-29T11:34:54;25.80;99.90
5743;DHT22;2896;53.500;10.020;2023-07-29T11:37:20;25.50;99.90
5743;DHT22;2896;53.500;10.020;2023-07-29T11:39:47;25.30;99.90
5743;DHT22;2896;53.500;10.020;2023-07-29T11:42:15;25.80;99.90
5743;DHT22;2896;53.500;10.020;2023-07-29T11:44:42;26.40;99.90
5743;DHT22;2896;53.500;10.020;2023-07-29T11:47:09;27.00;99.90
5743;DHT22;2896;53.500;10.020;2023-07-29T11:49:38;27.00;99.90
5743;DHT22;2896;53.500;10.020;2023-07-29T11:52:08;27.00;99.90
5743;DHT22;2896;53.500;10.020;2023-07-29T11:54:35;26.60;99.90
5743;DHT22;2896;53.500;10.020;2023-07-29T11:57:03;26.20;99.90
5743;DHT22;2896;53.500;10.020;2023-07-29T11:59:32;26.00;99.90
5743;DHT22;2896;53.500;10.020;2023-07-29T12:02:00;26.60;99.90
5743;DHT22;2896;53.500;10.020;2023-07-29T12:04:27;27.20;99.90
5743;DHT22;2896;53.500;10.020;2023-07-29T12:06:54;27.60;99.90
5743;DHT22;2896;53.500;10.020;2023-07-29T12:09:22;28.30;99.90
5743;DHT22;2896;53.500;10.020;2023-07-29T12:11:49;28.60;99.90
5743;DHT22;2896;53.500;10.020;2023-07-29T12:14:16;28.70;99.90
5743;DHT22;2896;53.500;10.020;2023-07-29T12:16:43;28.80;99.90
5743;DHT22;2896;53.500;10.020;2023-07-29T12:19:12;28.10;99.90
5743;DHT22;2896;53.500;10.020;2023-07-29T12:21:40;28.00;99.90
5743;DHT22;2896;53.500;10.020;2023-07-29T12:24:07;28.30;99.90
5743;DHT22;2896;53.500;10.020;2023-07-29T12:26:37;28.40;99.90
5743;DHT22;2896;53.500;10.020;2023-07-29T12:29:11;28.50;99.90
5743;DHT22;2896;53.500;10.020;2023-07-29T12:31:38;28.50;99.90
5743;DHT22;2896;53.500;10.020;2023-07-29T12:34:05;28.70;99.90
5743;DHT22;2896;53.500;10.020;2023-07-29T12:36:41;28.70;99.90
5743;DHT22;2896;53.500;10.020;2023-07-29T12:39:16;27.80;99.90
5743;DHT22;2896;53.500;10.020;2023-07-29T12:41:44;27.50;99.90
5743;DHT22;2896;53.500;10.020;2023-07-29T12:44:11;27.40;99.90
5743;DHT22;2896;53.500;10.020;2023-07-29T12:46:37;27.40;99.90
5743;DHT22;2896;53.500;10.020;2023-07-29T12:49:04;27.20;99.90
5743;DHT22;2896;53.500;10.020;2023-07-29T12:51:32;27.30;99.90
5743;DHT22;2896;53.500;10.020;2023-07-29T12:53:58;27.70;99.90
5743;DHT22;2896;53.500;10.020;2023-07-29T12:56:25;27.90;99.90
5743;DHT22;2896;53.500;10.020;2023-07-29T12:58:53;27.90;99.90
5743;DHT22;2896;53.500;10.020;2023-07-29T13:01:20;28.20;99.90
5743;DHT22;2896;53.500;10.020;2023-07-29T13:03:48;28.40;99.90
5743;DHT22;2896;53.500;10.020;2023-07-29T13:06:15;28.50;99.90
5743;DHT22;2896;53.500;10.020;2023-07-29T13:08:42;28.80;99.90
5743;DHT22;2896;53.500;10.020;2023-07-29T13:11:09;28.70;99.90
5743;DHT22;2896;53.500;10.020;2023-07-29T13:13:36;28.20;99.90
5743;DHT22;2896;53.500;10.020;2023-07-29T13:16:04;27.80;99.90
5743;DHT22;2896;53.500;10.020;2023-07-29T13:18:31;27.70;99.90
5743;DHT22;2896;53.500;10.020;2023-07-29T13:20:58;27.40;99.90
5743;DHT22;2896;53.500;10.020;2023-07-29T13:23:25;27.80;99.90
5743;DHT22;2896;53.500;10.020;2023-07-29T13:25:52;27.60;99.90
5743;DHT22;2896;53.500;10.020;2023-07-29T13:28:19;27.40;99.90
5743;DHT22;2896;53.500;10.020;2023-07-29T13:30:45;27.30;99.90
5743;DHT22;2896;53.500;10.020;2023-07-29T13:33:13;27.30;99.90
5743;DHT22;2896;53.500;10.020;2023-07-29T13:35:40;26.90;99.90
5743;DHT22;2896;53.500;10.020;2023-07-29T13:38:07;26.80;99.90
5743;DHT22;2896;53.500;10.020;2023-07-29T13:40:34;26.50;99.90
5743;DHT22;2896;53.500;10.020;2023-07-29T13:43:00;25.80;99.90
5743;DHT22;2896;53.500;10.020;2023-07-29T13:45:27;25.90;99.90
5743;DHT22;2896;53.500;10.020;2023-07-29T13:47:54;26.50;99.90
5743;DHT22;2896;53.500;10.020;2023-07-29T13:50:22;27.10;99.90
5743;DHT22;2896;53.500;10.020;2023-07-29T13:52:48;26.90;99.90
5743;DHT22;2896;53.500;10.020;2023-07-29T13:55:15;26.60;99.90
5743;DHT22;2896;53.500;10.020;2023-07-29T13:57:41;26.20;99.90
5743;DHT22;2896;53.500;10.020;2023-07-29T14:00:08;26.20;99.90
5743;DHT22;2896;53.500;10.020;2023-07-29T14:02:35;26.50;99.90
5743;DHT22;2896;53.500;10.020;2023-07-29T14:05:02;27.10;99.90
5743;DHT22;2896;53.500;10.020;2023-07-29T14:07:30;27.20;99.90
5743;DHT22;2896;53.500;10.020;2023-07-29T14:09:56;27.80;99.90
5743;DHT22;2896;53.500;10.020;2023-07-29T14:12:26;27.30;99.90
5743;DHT22;2896;53.500;10.020;2023-07-29T14:14:53;26.90;99.90
5743;DHT22;2896;53.500;10.020;2023-07-29T14:17:19;26.60;99.90
5743;DHT22;2896;53.500;10.020;2023-07-29T14:19:46;26.40;99.90
5743;DHT22;2896;53.500;10.020;2023-07-29T14:22:12;26.00;99.90
5743;DHT22;2896;53.500;10.020;2023-07-29T14:24:40;26.10;99.90
5743;DHT22;2896;53.500;10.020;2023-07-29T14:27:07;26.90;99.90
5743;DHT22;2896;53.500;10.020;2023-07-29T14:29:33;27.40;99.90
5743;DHT22;2896;53.500;10.020;2023-07-29T14:32:00;27.60;99.90
5743;DHT22;2896;53.500;10.020;2023-07-29T14:34:27;27.70;99.90
5743;DHT22;2896;53.500;10.020;2023-07-29T14:36:54;28.00;99.90
5743;DHT22;2896;53.500;10.020;2023-07-29T14:39:21;28.30;99.90
5743;DHT22;2896;53.500;10.020;2023-07-29T14:41:49;28.30;99.90
5743;DHT22;2896;53.500;10.020;2023-07-29T14:44:15;28.10;99.90
5743;DHT22;2896;53.500;10.020;2023-07-29T14:46:42;28.20;99.90
5743;DHT22;2896;53.500;10.020;2023-07-29T14:49:08;27.70;99.90
5743;DHT22;2896;53.500;10.020;2023-07-29T14:51:35;27.80;99.90
5743;DHT22;2896;53.500;10.020;2023-07-29T14:54:02;28.30;99.90
5743;DHT22;2896;53.500;10.020;2023-07-29T14:56:29;28.50;99.90
5743;DHT22;2896;53.500;10.020;2023-07-29T14:58:57;28.60;99.90
5743;DHT22;2896;53.500;10.020;2023-07-29T15:01:24;29.00;99.90
5743;DHT22;2896;53.500;10.020;2023-07-29T15:03:50;29.20;99.90
5743;DHT22;2896;53.500;10.020;2023-07-29T15:06:17;29.40;99.90
5743;DHT22;2896;53.500;10.020;2023-07-29T15:08:43;29.20;99.90
5743;DHT22;2896;53.500;10.020;2023-07-29T15:11:10;29.40;99.90
5743;DHT22;2896;53.500;10.020;2023-07-29T15:13:37;29.20;99.90
5743;DHT22;2896;53.500;10.020;2023-07-29T15:16:05;29.30;99.90
5743;DHT22;2896;53.500;10.020;2023-07-29T15:18:31;29.10;99.90
5743;DHT22;2896;53.500;10.020;2023-07-29T15:20:59;29.80;99.90
5743;DHT22;2896;53.500;10.020;2023-07-29T15:23:27;29.30;99.90
5743;DHT22;2896;53.500;10.020;2023-07-29T15:25:54;29.40;99.90
5743;DHT22;2896;53.500;10.020;2023-07-29T15:28:21;29.50;99.90
5743;DHT22;2896;53.500;10.020;2023-07-29T15:30:48;29.50;99.90
5743;DHT22;2896;53.500;10.020;2023-07-29T15:33:16;29.20;99.90
5743;DHT22;2896;53.500;10.020;2023-07-29T15:35:42;29.50;99.90
5743;DHT22;2896;53.500;10.020;2023-07-29T15:38:09;29.60;99.90
5743;DHT22;2896;53.500;10.020;2023-07-29T15:40:37;29.60;99.90
5743;DHT22;2896;53.500;10.020;2023-07-29T15:43:03;29.10;99.90
5743;DHT22;2896;53.500;10.020;2023-07-29T15:45:30;29.20;99.90
5743;DHT22;2896;53.500;10.020;2023-07-29T15:47:57;29.20;99.90
5743;DHT22;2896;53.500;10.020;2023-07-29T15:50:25;29.10;99.90